Time;durP1;ratioP1;P1;durP2;ratioP2;P2;SDS_P1;SDS_P2;PMS_P1;PMS_P2;Temp;Humidity;BMP_temperature;BMP_pressure;BME280_temperature;BME280_humidity;BME280_pressure;Samples;Min_cycle;Max_cycle;Signal;HPM_P1;HPM_P2
2023/11/04 00:01:25;;;;;;;5.82;2.33;;;;;;;7.25;77.29;96755.03;4999844;28;20058;-50
2023/11/04 00:03:52;;;;;;;3.13;1.23;;;;;;;7.29;77.38;96756.56;4989152;28;20547;-48
2023/11/04 00:06:19;;;;;;;7.53;1.77;;;;;;;7.32;76.77;96756.44;5002564;28;20054;-46
2023/11/04 00:08:46;;;;;;;4.82;1.58;;;;;;;7.36;77.51;96752.03;5002367;28;20042;-53
2023/11/04 00:11:12;;;;;;;3.92;1.92;;;;;;;7.40;77.57;96743.25;4999138;28;20068;-51
2023/11/04 00:13:39;;;;;;;4.57;1.75;;;;;;;7.42;77.33;96738.88;5003356;28;20054;-49
2023/11/04 00:16:08;;;;;;;5.32;1.42;;;;;;;7.43;77.43;96728.50;5002478;28;20050;-48
2023/11/04 00:18:36;;;;;;;4.85;1.83;;;;;;;7.43;76.22;96728.50;5002764;28;20157;-49
2023/11/04 00:21:07;;;;;;;3.42;1.70;;;;;;;7.41;76.36;96722.59;5005316;28;20052;-52
2023/11/04 00:23:33;;;;;;;7.25;1.52;;;;;;;7.39;76.30;96716.66;5002990;28;20550;-53
2023/11/04 00:26:00;;;;;;;4.93;1.20;;;;;;;7.36;76.22;96714.22;5003305;28;20050;-45
2023/11/04 00:28:27;;;;;;;3.05;1.10;;;;;;;7.33;76.58;96706.66;5003707;28;20049;-49
2023/11/04 00:30:53;;;;;;;6.63;2.05;;;;;;;7.31;77.05;96705.88;5001777;28;20107;-46
2023/11/04 00:33:20;;;;;;;6.47;1.85;;;;;;;7.28;77.07;96695.69;5003020;28;20064;-47
2023/11/04 00:35:47;;;;;;;4.30;1.30;;;;;;;7.24;76.87;96689.00;5000158;28;20061;-57
2023/11/04 00:38:13;;;;;;;2.55;1.40;;;;;;;7.21;77.22;96687.41;5004089;28;20075;-48
2023/11/04 00:40:42;;;;;;;6.35;1.98;;;;;;;7.16;76.21;96685.03;5001770;28;20054;-47
2023/11/04 00:43:08;;;;;;;2.92;1.23;;;;;;;7.13;77.06;96680.00;5000852;28;20046;-55
2023/11/04 00:45:35;;;;;;;4.32;1.40;;;;;;;7.11;76.12;96679.25;5003966;28;20053;-55
2023/11/04 00:48:02;;;;;;;4.32;1.63;;;;;;;7.09;76.17;96675.06;5004724;28;20045;-48
2023/11/04 00:50:29;;;;;;;3.58;1.42;;;;;;;7.06;77.51;96673.47;4995668;28;20068;-47
2023/11/04 00:52:55;;;;;;;5.75;1.30;;;;;;;7.05;76.52;96674.34;5003897;28;20485;-46
2023/11/04 00:55:22;;;;;;;8.65;1.73;;;;;;;7.02;76.19;96667.59;5005242;28;20082;-48
2023/11/04 00:57:49;;;;;;;7.03;1.60;;;;;;;7.01;77.80;96670.25;5003183;28;20522;-48
2023/11/04 01:00:23;;;;;;;4.45;1.23;;;;;;;6.98;76.81;96655.78;4998491;28;20123;-44
2023/11/04 01:02:50;;;;;;;4.90;1.48;;;;;;;6.96;77.47;96646.47;5002145;28;20057;-44
2023/11/04 01:05:17;;;;;;;4.05;1.25;;;;;;;6.95;77.84;96640.47;4998072;28;20042;-50
2023/11/04 01:07:44;;;;;;;4.75;1.90;;;;;;;6.93;77.78;96637.13;4997301;28;20045;-51
2023/11/04 01:10:13;;;;;;;5.28;1.38;;;;;;;6.90;77.07;96630.41;5003009;28;20509;-52
2023/11/04 01:12:40;;;;;;;6.80;1.20;;;;;;;6.89;77.94;96622.75;4996730;28;20057;-50
2023/11/04 01:15:07;;;;;;;5.15;1.52;;;;;;;6.88;77.41;96624.47;4999266;28;20057;-46
2023/11/04 01:17:34;;;;;;;3.70;1.35;;;;;;;6.85;78.06;96614.31;5002084;28;20058;-47
2023/11/04 01:20:01;;;;;;;7.78;1.05;;;;;;;6.82;76.81;96620.41;5007064;28;20042;-56
2023/11/04 01:22:27;;;;;;;2.88;1.10;;;;;;;6.80;76.95;96623.97;5003800;28;20114;-46
2023/11/04 01:24:54;;;;;;;6.47;1.50;;;;;;;6.77;76.83;96631.81;5011927;28;20065;-51
2023/11/04 01:27:21;;;;;;;6.57;2.22;;;;;;;6.74;77.95;96632.78;4999698;28;20415;-50
2023/11/04 01:29:49;;;;;;;4.00;1.45;;;;;;;6.71;76.89;96622.59;5011148;28;20045;-47
2023/11/04 01:32:17;;;;;;;5.35;1.30;;;;;;;6.69;77.59;96620.09;5006913;28;20046;-50
2023/11/04 01:34:44;;;;;;;4.75;1.25;;;;;;;6.66;76.98;96614.25;5004645;28;20521;-48
2023/11/04 01:37:12;;;;;;;3.28;1.10;;;;;;;6.65;77.51;96615.16;5008327;28;20037;-51
2023/11/04 01:39:40;;;;;;;5.18;0.80;;;;;;;6.61;77.48;96596.44;5012734;28;20049;-47
2023/11/04 01:42:07;;;;;;;4.00;1.52;;;;;;;6.60;78.10;96594.78;5004490;28;20514;-44
2023/11/04 01:44:35;;;;;;;4.32;1.02;;;;;;;6.58;78.14;96596.56;5010656;28;20124;-52
2023/11/04 01:47:04;;;;;;;6.28;1.40;;;;;;;6.56;76.84;96588.91;5013874;28;20053;-49
2023/11/04 01:49:31;;;;;;;6.22;1.65;;;;;;;6.55;77.70;96582.13;5005772;28;20050;-56
2023/11/04 01:51:59;;;;;;;7.97;1.73;;;;;;;6.54;77.67;96590.72;4999245;28;20057;-46
2023/11/04 01:54:27;;;;;;;2.85;1.15;;;;;;;6.51;77.01;96590.84;5001297;28;20135;-50
2023/11/04 01:56:55;;;;;;;3.97;1.02;;;;;;;6.49;77.66;96586.69;5005906;28;20046;-47
2023/11/04 01:59:25;;;;;;;4.70;1.20;;;;;;;6.46;77.51;96585.09;5004959;28;20050;-54
2023/11/04 02:01:53;;;;;;;2.33;0.98;;;;;;;6.40;76.49;96586.19;5003568;28;20042;-46
2023/11/04 02:04:20;;;;;;;3.28;1.02;;;;;;;6.37;77.84;96583.72;5009802;28;20049;-47
2023/11/04 02:06:48;;;;;;;2.53;1.25;;;;;;;6.33;76.23;96571.91;5009581;28;20053;-44
2023/11/04 02:09:15;;;;;;;6.28;1.42;;;;;;;6.30;76.42;96577.16;5005009;28;20395;-51
2023/11/04 02:11:42;;;;;;;1.63;0.93;;;;;;;6.28;78.00;96568.66;5008176;28;20078;-52
2023/11/04 02:14:09;;;;;;;2.10;0.90;;;;;;;6.25;77.96;96563.69;5021369;28;20045;-49
2023/11/04 02:16:36;;;;;;;2.30;1.23;;;;;;;6.25;77.93;96566.25;5008686;28;20065;-52
2023/11/04 02:19:04;;;;;;;6.03;1.70;;;;;;;6.24;77.43;96562.00;5006161;28;20080;-51
2023/11/04 02:21:32;;;;;;;5.03;1.73;;;;;;;6.23;77.18;96565.47;5022240;28;20115;-50
2023/11/04 02:23:58;;;;;;;4.53;1.70;;;;;;;6.22;77.46;96561.22;5013445;28;20133;-49
2023/11/04 02:26:25;;;;;;;5.40;1.88;;;;;;;6.20;78.04;96561.28;5016479;28;20558;-49
2023/11/04 02:28:52;;;;;;;5.75;1.70;;;;;;;6.20;77.57;96560.44;5017704;28;20044;-52
2023/11/04 02:31:19;;;;;;;5.72;1.48;;;;;;;6.17;78.13;96546.84;5014305;28;20072;-55
2023/11/04 02:33:45;;;;;;;5.43;2.75;;;;;;;6.16;78.65;96544.34;5017987;28;20053;-48
2023/11/04 02:36:12;;;;;;;5.15;1.88;;;;;;;6.15;78.26;96543.47;5002975;28;20129;-52
2023/11/04 02:38:39;;;;;;;7.43;2.78;;;;;;;6.13;77.12;96535.03;5009331;28;20054;-52
2023/11/04 02:41:06;;;;;;;5.65;2.28;;;;;;;6.12;78.34;96527.38;5014489;28;20041;-47
2023/11/04 02:43:32;;;;;;;8.00;2.15;;;;;;;6.12;78.53;96517.91;5015957;28;20073;-50
2023/11/04 02:45:59;;;;;;;7.45;1.75;;;;;;;6.10;78.35;96509.44;5004274;28;20129;-52
2023/11/04 02:48:26;;;;;;;6.28;2.28;;;;;;;6.11;77.25;96508.53;5012905;28;20133;-47
2023/11/04 02:50:52;;;;;;;6.78;3.55;;;;;;;6.11;77.45;96495.69;5008979;28;20046;-51
2023/11/04 02:53:19;;;;;;;8.25;4.32;;;;;;;6.11;78.43;96492.31;5003099;28;20053;-48
2023/11/04 02:55:46;;;;;;;6.13;2.90;;;;;;;6.10;77.96;96483.75;5006965;28;20049;-50
2023/11/04 02:58:12;;;;;;;7.43;2.55;;;;;;;6.09;77.22;96476.09;5004679;28;20169;-50
2023/11/04 03:00:39;;;;;;;10.52;2.83;;;;;;;6.08;77.72;96475.25;5011609;28;20049;-54
2023/11/04 03:03:06;;;;;;;7.47;2.47;;;;;;;6.07;77.95;96468.47;4997272;28;20084;-51
2023/11/04 03:05:32;;;;;;;10.50;2.92;;;;;;;6.04;77.80;96458.31;5008126;28;20108;-51
2023/11/04 03:08:03;;;;;;;12.25;2.83;;;;;;;5.99;78.12;96449.94;5014066;28;20149;-48
2023/11/04 03:10:30;;;;;;;6.80;3.15;;;;;;;5.97;78.48;96454.28;5011303;28;20383;-53
2023/11/04 03:12:57;;;;;;;11.10;2.67;;;;;;;5.92;77.57;96439.91;5013216;28;20046;-47
2023/11/04 03:15:24;;;;;;;7.03;2.75;;;;;;;5.87;78.13;96423.88;5006480;28;20116;-58
2023/11/04 03:17:51;;;;;;;7.78;3.13;;;;;;;5.84;78.60;96416.28;5022447;28;20046;-49
2023/11/04 03:20:18;;;;;;;6.20;2.78;;;;;;;5.84;77.46;96406.00;5012840;28;20045;-48
2023/11/04 03:22:45;;;;;;;8.65;3.25;;;;;;;5.82;77.45;96407.84;5016085;28;20045;-47
2023/11/04 03:25:12;;;;;;;13.10;3.42;;;;;;;5.85;77.64;96409.44;5021553;28;20467;-46
2023/11/04 03:27:39;;;;;;;10.18;3.40;;;;;;;5.86;78.62;96398.25;5024220;28;20517;-49
2023/11/04 03:30:06;;;;;;;8.65;3.38;;;;;;;5.85;78.88;96387.16;5016166;28;20049;-56
2023/11/04 03:32:33;;;;;;;10.07;4.05;;;;;;;5.85;78.39;96384.59;5023545;28;20053;-46
2023/11/04 03:35:00;;;;;;;17.27;3.35;;;;;;;5.85;77.65;96387.16;5018707;28;20042;-47
2023/11/04 03:37:26;;;;;;;10.90;3.28;;;;;;;5.84;78.98;96375.19;5011781;28;20060;-46
2023/11/04 03:39:53;;;;;;;6.13;2.65;;;;;;;5.84;78.65;96367.50;5002203;28;20066;-55
2023/11/04 03:42:20;;;;;;;7.75;2.33;;;;;;;5.85;78.08;96366.63;5004845;28;20064;-52
2023/11/04 03:44:46;;;;;;;8.20;3.40;;;;;;;5.83;78.32;96358.13;5008957;28;20136;-47
2023/11/04 03:47:13;;;;;;;7.22;2.65;;;;;;;5.84;77.64;96354.66;5015256;28;20038;-52
2023/11/04 03:49:40;;;;;;;12.32;2.83;;;;;;;5.82;78.32;96345.34;5004843;28;20046;-53
2023/11/04 03:52:07;;;;;;;5.93;2.40;;;;;;;5.82;77.78;96330.78;5006863;28;20046;-50
2023/11/04 03:54:35;;;;;;;10.30;2.20;;;;;;;5.81;77.39;96320.59;5007721;28;20052;-55
2023/11/04 03:57:02;;;;;;;8.15;2.33;;;;;;;5.78;77.60;96329.25;5007326;28;20050;-44
2023/11/04 03:59:28;;;;;;;3.30;1.45;;;;;;;5.76;78.38;96336.19;5008001;28;20502;-48
2023/11/04 04:01:55;;;;;;;6.75;3.00;;;;;;;5.73;77.87;96331.16;4999559;28;20053;-51
2023/11/04 04:04:22;;;;;;;5.13;1.98;;;;;;;5.70;78.89;96321.03;5015127;28;20060;-55
2023/11/04 04:06:50;;;;;;;8.43;2.30;;;;;;;5.69;77.63;96314.22;5006029;28;20470;-48
2023/11/04 04:09:17;;;;;;;6.80;2.42;;;;;;;5.67;77.88;96306.59;5006194;28;20133;-57
2023/11/04 04:11:44;;;;;;;7.38;2.55;;;;;;;5.68;78.19;96302.31;5005496;28;20045;-49
2023/11/04 04:14:11;;;;;;;4.78;2.88;;;;;;;5.65;77.29;96298.94;4998480;28;20462;-51
2023/11/04 04:16:37;;;;;;;6.35;2.10;;;;;;;5.68;78.24;96297.16;5006961;28;20053;-55
2023/11/04 04:19:04;;;;;;;8.77;2.60;;;;;;;5.68;78.61;96294.59;5007176;28;20048;-48
2023/11/04 04:21:32;;;;;;;5.60;2.22;;;;;;;5.68;77.86;96287.75;5008623;28;20069;-49
2023/11/04 04:23:58;;;;;;;6.78;2.53;;;;;;;5.69;78.63;96289.41;5004517;28;20073;-47
2023/11/04 04:26:25;;;;;;;7.05;2.22;;;;;;;5.70;78.73;96285.06;5006518;28;20506;-46
2023/11/04 04:28:51;;;;;;;8.32;3.33;;;;;;;5.70;78.62;96275.66;5004993;28;20057;-50
2023/11/04 04:31:18;;;;;;;5.85;2.30;;;;;;;5.70;78.39;96265.38;5009275;28;20049;-52
2023/11/04 04:33:45;;;;;;;8.90;3.03;;;;;;;5.69;77.63;96257.75;5008516;28;20068;-50
2023/11/04 04:36:12;;;;;;;9.57;2.85;;;;;;;5.69;78.66;96252.59;5011770;28;20049;-48
2023/11/04 04:38:39;;;;;;;5.82;2.90;;;;;;;5.66;78.28;96246.72;5010078;28;20159;-54
2023/11/04 04:41:08;;;;;;;9.40;3.05;;;;;;;5.66;77.85;96228.75;5006286;28;20072;-55
2023/11/04 04:43:36;;;;;;;8.23;3.47;;;;;;;5.66;78.56;96222.78;5008844;28;20060;-50
2023/11/04 04:46:04;;;;;;;5.60;4.13;;;;;;;5.68;78.12;96199.59;5008646;28;20559;-55
2023/11/04 04:48:31;;;;;;;6.45;2.45;;;;;;;5.69;77.48;96201.25;5008873;28;20055;-49
2023/11/04 04:50:58;;;;;;;6.90;2.85;;;;;;;5.69;77.79;96204.69;5011521;28;20044;-46
2023/11/04 04:53:24;;;;;;;6.85;3.70;;;;;;;5.68;78.44;96192.75;5015091;28;20621;-43
2023/11/04 04:55:53;;;;;;;6.93;2.55;;;;;;;5.69;78.24;96206.41;5016134;28;20053;-54
2023/11/04 04:58:22;;;;;;;14.20;3.08;;;;;;;5.66;78.53;96208.22;5009623;28;20141;-46
2023/11/04 05:00:48;;;;;;;10.43;3.33;;;;;;;5.65;78.69;96203.97;5012735;28;20431;-47
2023/11/04 05:03:15;;;;;;;6.70;2.25;;;;;;;5.65;78.04;96206.53;5004272;28;20149;-51
2023/11/04 05:05:42;;;;;;;9.55;2.95;;;;;;;5.66;78.41;96197.94;5011177;28;20069;-53
2023/11/04 05:08:09;;;;;;;5.90;2.33;;;;;;;5.66;78.50;96197.94;5017380;28;20050;-52
2023/11/04 05:10:35;;;;;;;10.13;2.40;;;;;;;5.64;78.66;96184.34;5008900;28;20066;-54
2023/11/04 05:13:04;;;;;;;7.60;2.75;;;;;;;5.63;78.03;96189.53;5005102;28;20048;-50
2023/11/04 05:15:31;;;;;;;8.32;2.50;;;;;;;5.60;77.83;96182.81;5009208;28;20411;-51
2023/11/04 05:17:57;;;;;;;13.02;3.08;;;;;;;5.58;78.65;96176.09;5002975;28;20052;-54
2023/11/04 05:20:24;;;;;;;6.05;1.88;;;;;;;5.58;78.64;96168.38;5016063;28;20088;-53
2023/11/04 05:22:51;;;;;;;5.00;1.85;;;;;;;5.53;78.85;96166.00;5008072;28;20058;-46
2023/11/04 05:25:17;;;;;;;8.48;2.15;;;;;;;5.53;78.61;96159.16;5012884;28;20053;-55
2023/11/04 05:27:45;;;;;;;6.88;2.00;;;;;;;5.53;78.11;96154.03;5006657;28;20137;-51
2023/11/04 05:30:12;;;;;;;7.60;1.80;;;;;;;5.52;78.98;96148.97;5014182;28;20042;-51
2023/11/04 05:32:39;;;;;;;7.50;1.83;;;;;;;5.53;79.12;96151.47;5011675;28;20099;-49
2023/11/04 05:35:08;;;;;;;5.60;1.75;;;;;;;5.51;79.25;96137.03;5007980;28;20049;-47
2023/11/04 05:37:34;;;;;;;3.13;1.15;;;;;;;5.52;78.59;96133.56;5018542;28;20048;-46
2023/11/04 05:40:03;;;;;;;5.75;1.90;;;;;;;5.52;79.20;96123.28;5020991;28;20056;-46
2023/11/04 05:42:29;;;;;;;9.65;2.95;;;;;;;5.52;78.11;96123.28;5023189;28;20044;-47
2023/11/04 05:44:57;;;;;;;8.50;2.10;;;;;;;5.52;79.19;96111.28;5013957;28;20046;-51
2023/11/04 05:47:24;;;;;;;4.63;1.60;;;;;;;5.50;78.44;96102.81;5016354;28;20140;-46
2023/11/04 05:49:50;;;;;;;3.90;1.60;;;;;;;5.49;78.29;96093.47;5011035;28;20042;-51
2023/11/04 05:52:17;;;;;;;3.72;1.85;;;;;;;5.47;78.01;96084.19;5015853;28;20049;-56
2023/11/04 05:54:43;;;;;;;10.00;2.00;;;;;;;5.45;78.29;96080.84;5013130;28;20046;-51
2023/11/04 05:57:10;;;;;;;6.32;1.58;;;;;;;5.44;78.29;96084.31;5012026;28;20049;-49
2023/11/04 05:59:37;;;;;;;2.42;1.45;;;;;;;5.43;79.28;96075.78;5021088;28;20426;-51
2023/11/04 06:02:04;;;;;;;5.57;1.73;;;;;;;5.44;79.19;96074.03;5018471;28;20506;-49
2023/11/04 06:04:30;;;;;;;3.55;1.75;;;;;;;5.44;78.48;96063.78;5015264;28;20487;-48
2023/11/04 06:06:57;;;;;;;7.75;1.73;;;;;;;5.44;79.02;96068.91;5007464;28;20140;-52
2023/11/04 06:09:25;;;;;;;6.20;2.05;;;;;;;5.44;78.66;96063.78;5021587;28;20046;-45
2023/11/04 06:11:52;;;;;;;7.18;2.22;;;;;;;5.45;78.40;96056.00;5016148;28;20060;-49
2023/11/04 06:14:19;;;;;;;4.38;1.80;;;;;;;5.45;78.16;96047.47;5003692;28;20061;-50
2023/11/04 06:16:45;;;;;;;3.17;1.60;;;;;;;5.45;79.01;96045.75;5011096;28;20069;-49
2023/11/04 06:19:12;;;;;;;10.02;2.38;;;;;;;5.45;78.43;96030.34;5017352;28;20041;-47
2023/11/04 06:21:39;;;;;;;7.70;1.98;;;;;;;5.45;79.65;96024.38;5020548;28;20042;-55
2023/11/04 06:24:06;;;;;;;4.82;1.48;;;;;;;5.45;78.48;96011.53;5011315;28;20081;-47
2023/11/04 06:26:33;;;;;;;9.77;2.25;;;;;;;5.46;78.59;96005.50;5015416;28;20058;-49
2023/11/04 06:29:00;;;;;;;4.38;1.83;;;;;;;5.44;78.22;95997.06;5014298;28;20057;-55
2023/11/04 06:31:26;;;;;;;6.57;1.90;;;;;;;5.40;79.60;95986.09;5003873;28;20054;-52
2023/11/04 06:33:53;;;;;;;9.80;2.63;;;;;;;5.36;79.17;95982.84;5013201;28;20100;-50
2023/11/04 06:36:20;;;;;;;4.97;1.60;;;;;;;5.33;78.57;95975.28;5015775;28;20080;-51
2023/11/04 06:38:47;;;;;;;8.68;2.20;;;;;;;5.34;78.99;95971.00;5015392;28;20045;-50
2023/11/04 06:41:16;;;;;;;6.57;1.83;;;;;;;5.32;79.11;95962.53;5016702;28;20053;-50
2023/11/04 06:43:45;;;;;;;4.90;1.90;;;;;;;5.33;80.14;95953.97;5014193;28;20107;-48
2023/11/04 06:46:12;;;;;;;5.65;2.10;;;;;;;5.33;79.63;95934.25;5012760;28;20426;-50
2023/11/04 06:48:39;;;;;;;9.52;1.98;;;;;;;5.33;79.97;95929.09;5030924;28;20042;-48
2023/11/04 06:51:06;;;;;;;3.88;2.05;;;;;;;5.32;79.59;95906.94;5017674;28;20053;-49
2023/11/04 06:53:32;;;;;;;8.13;2.05;;;;;;;5.36;79.46;95907.59;5011238;28;20496;-51
2023/11/04 06:56:00;;;;;;;7.22;2.33;;;;;;;5.36;79.61;95908.44;5008395;28;20057;-52
2023/11/04 06:58:27;;;;;;;12.35;2.13;;;;;;;5.32;79.75;95901.78;5007756;28;20049;-45
2023/11/04 07:00:55;;;;;;;3.60;1.75;;;;;;;5.35;79.52;95890.56;5000934;28;20053;-48
2023/11/04 07:03:22;;;;;;;3.53;2.20;;;;;;;5.34;80.61;95884.56;5009841;28;20049;-52
2023/11/04 07:05:48;;;;;;;9.73;2.85;;;;;;;5.36;80.23;95887.06;5010368;28;20133;-53
2023/11/04 07:08:16;;;;;;;5.70;1.85;;;;;;;5.39;80.42;95882.63;5000750;28;20044;-49
2023/11/04 07:10:43;;;;;;;6.32;1.65;;;;;;;5.39;81.00;95881.78;5015140;28;20053;-51
2023/11/04 07:13:12;;;;;;;6.63;1.80;;;;;;;5.42;80.76;95873.94;5017231;28;20072;-53
2023/11/04 07:15:40;;;;;;;2.83;2.28;;;;;;;5.46;80.58;95875.47;5015100;28;20739;-48
2023/11/04 07:18:07;;;;;;;7.15;2.10;;;;;;;5.49;81.79;95871.91;5013267;28;20572;-53
2023/11/04 07:20:35;;;;;;;4.97;1.92;;;;;;;5.53;81.19;95863.97;5005509;28;20046;-52
2023/11/04 07:23:02;;;;;;;4.72;1.45;;;;;;;5.49;81.35;95866.78;5008160;28;20068;-49
2023/11/04 07:25:30;;;;;;;9.07;1.98;;;;;;;5.58;81.16;95852.66;5017924;28;20079;-53
2023/11/04 07:27:58;;;;;;;5.55;1.85;;;;;;;5.57;82.34;95851.81;5004345;28;20037;-53
2023/11/04 07:30:25;;;;;;;12.25;2.08;;;;;;;5.59;81.57;95839.75;5014600;28;20057;-47
2023/11/04 07:32:53;;;;;;;5.40;2.28;;;;;;;5.60;82.77;95838.00;5003546;28;20050;-54
2023/11/04 07:35:20;;;;;;;6.05;2.40;;;;;;;5.63;82.73;95833.56;5016894;28;20408;-51
2023/11/04 07:37:46;;;;;;;2.97;1.58;;;;;;;5.61;82.24;95830.22;5029722;28;20551;-50
2023/11/04 07:40:14;;;;;;;5.68;2.03;;;;;;;5.63;82.98;95825.00;5017026;28;20129;-48
2023/11/04 07:42:40;;;;;;;6.25;1.60;;;;;;;5.69;81.68;95821.28;5013216;28;20060;-46
2023/11/04 07:45:11;;;;;;;14.35;3.05;;;;;;;5.64;83.36;95809.53;5011227;28;20122;-56
2023/11/04 07:47:39;;;;;;;;;;;;;;;5.55;82.69;95786.91;5012813;28;20427;-51
2023/11/04 07:50:07;;;;;;;10.63;2.00;;;;;;;5.63;83.06;95787.34;5043798;28;19921;-52
2023/11/04 07:52:34;;;;;;;6.20;2.40;;;;;;;5.62;83.51;95784.84;5007889;28;20052;-54
2023/11/04 07:55:15;;;;;;;8.38;2.15;;;;;;;5.62;82.88;95780.56;5017442;28;20053;-47
2023/11/04 07:57:42;;;;;;;4.32;1.95;;;;;;;5.69;83.29;95765.66;5001837;28;20052;-56
2023/11/04 08:00:10;;;;;;;4.85;1.65;;;;;;;5.67;82.96;95752.06;5011204;28;20045;-49
2023/11/04 08:02:38;;;;;;;4.68;2.53;;;;;;;5.72;83.94;95749.25;5030936;28;20050;-50
2023/11/04 08:05:05;;;;;;;7.78;2.13;;;;;;;5.74;83.95;95748.28;5016862;28;20100;-45
2023/11/04 08:07:31;;;;;;;5.22;2.22;;;;;;;5.73;84.12;95744.06;5019494;28;20061;-49
2023/11/04 08:09:59;;;;;;;10.80;1.98;;;;;;;5.77;83.25;95754.97;5011967;28;20049;-52
2023/11/04 08:12:26;;;;;;;9.55;2.20;;;;;;;5.75;83.10;95749.09;5011154;28;20065;-48
2023/11/04 08:14:53;;;;;;;6.03;2.08;;;;;;;5.83;84.06;95746.97;5013047;28;20081;-50
2023/11/04 08:17:20;;;;;;;5.03;1.58;;;;;;;5.89;82.80;95746.66;5006489;28;20550;-46
2023/11/04 08:19:47;;;;;;;4.72;2.20;;;;;;;5.92;83.30;95736.19;5021173;28;20052;-51
2023/11/04 08:22:14;;;;;;;5.88;1.50;;;;;;;5.95;83.69;95726.69;5017526;28;20057;-51
2023/11/04 08:24:42;;;;;;;2.63;1.15;;;;;;;5.97;84.49;95719.69;5013548;28;20056;-51
2023/11/04 08:27:09;;;;;;;4.57;1.42;;;;;;;6.06;83.46;95715.84;5004916;28;20053;-52
2023/11/04 08:29:36;;;;;;;4.00;1.38;;;;;;;6.08;83.81;95714.03;5007143;28;20049;-46
2023/11/04 08:32:03;;;;;;;4.40;1.60;;;;;;;6.12;84.00;95707.81;5000335;28;20057;-54
2023/11/04 08:34:30;;;;;;;5.10;2.33;;;;;;;6.13;85.03;95705.16;5015917;28;20045;-46
2023/11/04 08:36:57;;;;;;;5.95;1.77;;;;;;;6.16;84.12;95702.44;5016068;28;20065;-52
2023/11/04 08:39:24;;;;;;;6.88;1.92;;;;;;;6.25;83.56;95695.13;5012136;28;20045;-56
2023/11/04 08:41:51;;;;;;;6.38;1.92;;;;;;;6.29;84.38;95691.47;5009346;28;20054;-48
2023/11/04 08:44:17;;;;;;;3.10;1.73;;;;;;;6.28;84.87;95689.78;5000991;28;20068;-49
2023/11/04 08:46:44;;;;;;;6.25;1.92;;;;;;;6.33;83.97;95681.84;5005969;28;20716;-50
2023/11/04 08:49:11;;;;;;;6.22;1.17;;;;;;;6.37;84.58;95673.88;5006187;28;20047;-56
2023/11/04 08:51:38;;;;;;;3.15;1.60;;;;;;;6.40;83.45;95666.00;5014227;28;20053;-53
2023/11/04 08:54:06;;;;;;;4.60;2.33;;;;;;;6.42;85.21;95659.00;5003277;28;20045;-50
2023/11/04 08:56:32;;;;;;;6.45;1.83;;;;;;;6.47;84.12;95652.78;5002309;28;20899;-52
2023/11/04 08:58:59;;;;;;;4.20;1.48;;;;;;;6.48;83.84;95649.31;5010123;28;20038;-53
2023/11/04 09:01:26;;;;;;;5.82;2.00;;;;;;;6.52;84.40;95640.50;5010493;28;20454;-50
2023/11/04 09:03:55;;;;;;;6.75;2.13;;;;;;;6.54;84.94;95631.78;5008224;28;20057;-49
2023/11/04 09:06:30;;;;;;;3.28;1.35;;;;;;;6.56;83.81;95627.38;5008714;28;20486;-53
2023/11/04 09:08:59;;;;;;;8.77;2.30;;;;;;;6.60;85.45;95617.75;5009697;28;20465;-46
2023/11/04 09:11:26;;;;;;;4.93;1.83;;;;;;;6.63;85.06;95611.59;5007281;28;20136;-51
2023/11/04 09:13:53;;;;;;;8.43;2.08;;;;;;;6.66;84.85;95604.53;5011651;28;20096;-43
2023/11/04 09:16:19;;;;;;;5.70;1.65;;;;;;;6.67;85.88;95595.91;5012382;28;20065;-55
2023/11/04 09:18:46;;;;;;;6.38;2.63;;;;;;;6.69;85.74;95586.34;5000350;28;20574;-52
2023/11/04 09:21:14;;;;;;;8.73;1.48;;;;;;;6.78;84.79;95576.44;5009587;28;20125;-45
2023/11/04 09:23:41;;;;;;;6.38;1.50;;;;;;;6.84;84.94;95562.38;5008960;28;20074;-53
2023/11/04 09:26:10;;;;;;;3.15;1.55;;;;;;;6.88;85.47;95562.13;5009198;28;20048;-49
2023/11/04 09:28:38;;;;;;;2.92;0.85;;;;;;;6.92;84.96;95550.72;5011828;28;20045;-46
2023/11/04 09:31:05;;;;;;;4.20;1.00;;;;;;;6.97;85.14;95553.03;5001310;28;20053;-51
2023/11/04 09:33:34;;;;;;;4.80;1.23;;;;;;;7.00;85.44;95541.72;5004149;28;20057;-46
2023/11/04 09:36:02;;;;;;;3.17;1.55;;;;;;;7.03;84.65;95541.53;5010824;28;20415;-47
2023/11/04 09:38:29;;;;;;;5.10;1.63;;;;;;;7.03;84.89;95537.19;5009484;28;20136;-52
2023/11/04 09:40:56;;;;;;;3.25;1.48;;;;;;;7.03;84.87;95532.06;5005814;28;20045;-56
2023/11/04 09:43:22;;;;;;;5.28;1.60;;;;;;;7.05;85.88;95521.69;5002750;28;20077;-49
2023/11/04 09:45:49;;;;;;;3.10;0.98;;;;;;;7.08;85.87;95516.34;5008843;28;20046;-47
2023/11/04 09:48:17;;;;;;;6.38;1.60;;;;;;;7.05;85.81;95508.81;5011838;28;20089;-46
2023/11/04 09:50:44;;;;;;;6.28;1.52;;;;;;;7.09;85.81;95505.13;5007047;28;20124;-54
2023/11/04 09:53:17;;;;;;;2.50;1.15;;;;;;;7.10;85.69;95490.53;5005310;28;20046;-56
2023/11/04 09:55:44;;;;;;;1.45;0.73;;;;;;;7.14;84.22;95485.09;5007740;28;20053;-44
2023/11/04 09:58:12;;;;;;;4.20;1.50;;;;;;;7.06;84.62;95474.47;5006631;28;20050;-49
2023/11/04 10:00:43;;;;;;;4.93;1.02;;;;;;;7.07;85.54;95464.06;5003960;28;20050;-46
2023/11/04 10:03:09;;;;;;;3.15;1.08;;;;;;;7.09;84.89;95453.66;4999846;28;20050;-52
2023/11/04 10:05:37;;;;;;;1.38;1.20;;;;;;;7.12;84.90;95442.38;5002096;28;20148;-52
2023/11/04 10:08:04;;;;;;;2.38;1.33;;;;;;;7.14;84.60;95431.06;5005889;28;20073;-44
2023/11/04 10:10:30;;;;;;;2.55;0.90;;;;;;;7.17;85.21;95425.72;5006369;28;20042;-46
2023/11/04 10:12:57;;;;;;;1.88;0.80;;;;;;;7.15;85.12;95427.56;5002985;28;20054;-52
2023/11/04 10:15:24;;;;;;;0.80;0.70;;;;;;;7.11;84.17;95415.00;5007880;28;20056;-53
2023/11/04 10:17:51;;;;;;;2.42;0.70;;;;;;;7.12;83.92;95407.19;5012819;28;20458;-51
2023/11/04 10:20:20;;;;;;;4.20;1.65;;;;;;;7.19;84.93;95403.28;5008585;28;20041;-49
2023/11/04 10:22:47;;;;;;;3.42;0.60;;;;;;;7.15;84.13;95399.28;5009533;28;20049;-50
2023/11/04 10:25:14;;;;;;;1.60;0.70;;;;;;;7.24;84.21;95392.72;5007869;28;20053;-46
2023/11/04 10:27:41;;;;;;;1.20;0.60;;;;;;;7.24;83.54;95384.16;5010635;28;20341;-52
2023/11/04 10:30:08;;;;;;;2.70;1.77;;;;;;;7.22;83.53;95375.72;5003480;28;20799;-53
2023/11/04 10:32:38;;;;;;;2.13;0.73;;;;;;;7.24;83.46;95371.28;5010375;28;20068;-51
2023/11/04 10:35:11;;;;;;;1.25;0.43;;;;;;;7.23;83.42;95356.78;5032865;28;20095;-58
2023/11/04 10:37:43;;;;;;;1.13;0.77;;;;;;;7.26;83.76;95336.00;5001600;28;20045;-55
2023/11/04 10:40:13;;;;;;;4.15;0.52;;;;;;;7.19;83.61;95323.53;5006880;28;20050;-46
2023/11/04 10:42:54;;;;;;;;;;;;;;;7.23;84.18;95310.47;5002084;28;20057;-47
2023/11/04 10:45:28;;;;;;;2.30;0.70;;;;;;;7.29;83.94;95303.16;4989385;28;19929;-54
2023/11/04 10:47:59;;;;;;;0.88;0.25;;;;;;;7.28;84.24;95287.81;4986252;28;20412;-46
2023/11/04 10:50:32;;;;;;;6.18;0.85;;;;;;;7.31;84.13;95288.47;4987970;28;20061;-48
2023/11/04 10:55:51;;;;;;;0.35;0.35;;;;;;;7.35;83.25;95273.63;5063816;27;20406;-51
2023/11/04 10:58:27;;;;;;;0.60;0.60;;;;;;;7.36;83.69;95264.97;5014128;28;20053;-51
2023/11/04 11:00:54;;;;;;;0.88;0.88;;;;;;;7.32;84.49;95248.09;5013737;28;20062;-50
2023/11/04 11:03:22;;;;;;;1.40;0.32;;;;;;;7.39;84.54;95246.75;5014859;28;20057;-44
2023/11/04 11:05:50;;;;;;;0.98;0.35;;;;;;;7.40;84.06;95235.53;5027005;28;20041;-48
2023/11/04 11:08:19;;;;;;;0.65;0.63;;;;;;;7.40;83.45;95230.38;5025299;28;20063;-52
2023/11/04 11:10:56;;;;;;;3.05;0.85;;;;;;;7.38;83.22;95211.66;5027422;28;20601;-47
2023/11/04 11:13:28;;;;;;;0.88;0.25;;;;;;;7.39;82.87;95215.88;5029981;28;20068;-48
2023/11/04 11:15:58;;;;;;;2.25;0.73;;;;;;;7.41;83.09;95211.44;5026894;28;20053;-52
2023/11/04 11:18:26;;;;;;;2.38;0.75;;;;;;;7.43;83.00;95204.44;5030980;28;20048;-53
2023/11/04 11:20:53;;;;;;;0.57;0.57;;;;;;;7.43;83.89;95194.13;5036033;28;20124;-48
2023/11/04 11:23:28;;;;;;;0.90;0.47;;;;;;;7.46;84.75;95178.50;5025946;28;20060;-49
2023/11/04 11:26:13;;;;;;;1.02;0.82;;;;;;;7.46;83.74;95168.19;5028775;28;20470;-51
2023/11/04 11:28:41;;;;;;;2.85;0.63;;;;;;;7.54;83.95;95161.69;5029390;28;20053;-49
2023/11/04 11:31:13;;;;;;;0.40;0.40;;;;;;;7.57;83.56;95161.50;5026307;28;20046;-48
2023/11/04 11:33:41;;;;;;;0.50;0.50;;;;;;;7.60;83.57;95158.69;5030996;28;20051;-47
2023/11/04 11:36:13;;;;;;;0.88;0.88;;;;;;;7.62;84.85;95156.00;4997056;28;20135;-49
2023/11/04 11:38:45;;;;;;;1.55;1.45;;;;;;;7.57;83.93;95153.75;4990706;28;20410;-49
2023/11/04 11:41:14;;;;;;;1.20;0.85;;;;;;;7.59;83.68;95144.16;4993359;28;20124;-52
2023/11/04 11:43:43;;;;;;;1.52;1.17;;;;;;;7.68;83.91;95140.97;4995601;28;20061;-49
2023/11/04 11:46:10;;;;;;;2.47;1.00;;;;;;;7.68;83.39;95145.28;5000724;28;20049;-48